Hattiesburg Laurel Regional Airport
KPIB : now visible

Airfield :











YOU CAN JOIN US ON...

 
LOGIN :

Register | Disclaimer

   EN    FR    IT 

 









Legend :    VFR   Marginal VFR   IFR   Intensive IFR   Very Intensive IFR
Visi :
Ceiling :
>= 8 km
>= 3000ft
5 to 8 km
1000 to 3000 ft
1500m to 5 km
500 to 1000 ft
800 to 1500m
200 to 500 ft
< 800m
< 200 ft
Symbols :   Thunderstorms  Fog  Heavy snow  Heavy precipitations  Wind > 20 kt






- Airport Elevation : 298 ft
- IATA code : PIB


KPIB - Hattiesburg Laurel Regional

CURRENT METAR :
  • 180822Z AUTO 13010KT 10SM SCT024 BKN044 OVC085 16/11 A3025 RMK AO2

EXPIRED METARs :
  • 180756Z AUTO 13008KT 10SM BKN026 BKN043 16/12 A3025 RMK AO2 SLP243 T01560117
  • 180656Z AUTO 09005KT 10SM OVC024 16/12 A3027 RMK AO2 SLP248 T01610122

TAF KPIB
Valid from the 18 at 07:00 until the 19 at 06:00 UTC


180632Z 1807/1906 14006KT P6SM VCSH OVC040
FM180900 14006KT 6SM -RA OVC025
FM181400 18008KT 6SM SHRA OVC026
FM181800 19008KT P6SM VCSH OVC045
FM190300 33005KT P6SM OVC016



MET'MAP, your aeronautical weather chart ! - Copyright ORBIFLY December 2007 - Disclaimer

ORBIFLY MET'MAP TEAM :

Programming & Development : Alexandra Zaïnal
Concept & original design : Baudouin d'Aumeries
Assistance for programming : Marc-Olivier Méhu
Technical & hardware support : Manuel Goepfert

Contact : metmap@orbifly.com




SOURCES & CREDITS :

   NOAA       Earth
Advisory